Time;durP1;ratioP1;P1;durP2;ratioP2;P2;SDS_P1;SDS_P2;PMS_P1;PMS_P2;Temp;Humidity;BMP_temperature;BMP_pressure;BME280_temperature;BME280_humidity;BME280_pressure;Samples;Min_cycle;Max_cycle;Signal;HPM_P1;HPM_P2
2023/10/20 00:00:20;;;;;;;;;;;7.80;99.90;;;;;;5114411;28;19934;-41
2023/10/20 00:02:45;;;;;;;;;;;7.80;99.90;;;;;;5114471;28;20365;-41
2023/10/20 00:05:11;;;;;;;;;;;7.80;99.90;;;;;;5114142;28;19931;-41
2023/10/20 00:07:37;;;;;;;;;;;7.90;99.90;;;;;;5114091;28;20294;-41
2023/10/20 00:10:03;;;;;;;;;;;7.80;99.90;;;;;;5114790;28;20350;-41
2023/10/20 00:12:29;;;;;;;;;;;7.80;99.90;;;;;;5113865;28;19924;-41
2023/10/20 00:14:55;;;;;;;;;;;7.80;99.90;;;;;;5114255;28;20287;-41
2023/10/20 00:17:21;;;;;;;;;;;7.80;99.90;;;;;;5113585;28;20023;-40
2023/10/20 00:19:47;;;;;;;;;;;7.80;99.90;;;;;;5114111;28;19981;-41
2023/10/20 00:22:13;;;;;;;;;;;7.80;99.90;;;;;;5113921;28;19931;-42
2023/10/20 00:24:39;;;;;;;;;;;7.90;99.90;;;;;;5114159;28;20382;-41
2023/10/20 00:27:05;;;;;;;;;;;7.80;99.90;;;;;;5114241;28;19924;-41
2023/10/20 00:29:30;;;;;;;;;;;7.90;99.90;;;;;;5114149;28;20374;-41
2023/10/20 00:31:56;;;;;;;;;;;7.90;99.90;;;;;;5113947;28;20298;-41
2023/10/20 00:34:21;;;;;;;;;;;7.90;99.90;;;;;;5116436;28;19924;-40
2023/10/20 00:36:47;;;;;;;;;;;7.90;99.90;;;;;;5117751;28;19931;-41
2023/10/20 00:39:12;;;;;;;;;;;7.90;99.90;;;;;;5116800;28;19946;-41
2023/10/20 00:41:38;;;;;;;;;;;7.80;99.90;;;;;;5118264;28;20371;-41
2023/10/20 00:44:04;;;;;;;;;;;7.90;99.90;;;;;;5117565;28;19971;-41
2023/10/20 00:46:30;;;;;;;;;;;7.90;99.90;;;;;;5116618;28;20061;-40
2023/10/20 00:48:56;;;;;;;;;;;7.90;99.90;;;;;;5116681;28;19978;-41
2023/10/20 00:51:24;;;;;;;;;;;7.90;99.90;;;;;;5117537;28;19923;-40
2023/10/20 00:53:50;;;;;;;;;;;7.90;99.90;;;;;;5116130;28;20282;-41
2023/10/20 00:56:16;;;;;;;;;;;7.90;99.90;;;;;;5117448;28;19924;-40
2023/10/20 00:58:42;;;;;;;;;;;7.90;99.90;;;;;;5117531;28;19923;-40
2023/10/20 01:01:08;;;;;;;;;;;7.90;99.90;;;;;;5117467;28;20014;-40
2023/10/20 01:03:35;;;;;;;;;;;7.90;99.90;;;;;;5117628;28;20398;-41
2023/10/20 01:06:03;;;;;;;;;;;7.90;99.90;;;;;;5117234;28;19928;-40
2023/10/20 01:08:28;;;;;;;;;;;7.90;99.90;;;;;;5117162;28;20409;-41
2023/10/20 01:10:54;;;;;;;;;;;7.90;99.90;;;;;;5117484;28;19924;-41
2023/10/20 01:13:21;;;;;;;;;;;7.90;99.90;;;;;;5117683;28;19927;-40
2023/10/20 01:15:47;;;;;;;;;;;7.90;99.90;;;;;;5117061;28;19928;-40
2023/10/20 01:18:13;;;;;;;;;;;7.90;99.90;;;;;;5117089;28;19991;-41
2023/10/20 01:20:38;;;;;;;;;;;7.90;99.90;;;;;;5116917;28;19928;-41
2023/10/20 01:23:04;;;;;;;;;;;7.90;99.90;;;;;;5116867;28;19946;-40
2023/10/20 01:25:31;;;;;;;;;;;7.90;99.90;;;;;;5117111;28;19973;-40
2023/10/20 01:27:56;;;;;;;;;;;7.90;99.90;;;;;;5115988;28;19923;-41
2023/10/20 01:30:22;;;;;;;;;;;7.90;99.90;;;;;;5117018;28;19981;-40
2023/10/20 01:32:48;;;;;;;;;;;8.00;99.90;;;;;;5115477;28;20275;-41
2023/10/20 01:35:13;;;;;;;;;;;8.00;99.90;;;;;;5116717;28;19946;-41
2023/10/20 01:37:42;;;;;;;;;;;7.90;99.90;;;;;;5116501;28;19934;-42
2023/10/20 01:40:12;;;;;;;;;;;7.90;99.90;;;;;;5116946;28;19924;-41
2023/10/20 01:42:38;;;;;;;;;;;7.90;99.90;;;;;;5116602;28;19966;-41
2023/10/20 01:45:04;;;;;;;;;;;7.90;99.90;;;;;;5116458;28;20378;-40
2023/10/20 01:47:30;;;;;;;;;;;7.90;99.90;;;;;;5116476;28;19928;-41
2023/10/20 01:49:56;;;;;;;;;;;7.90;99.90;;;;;;5132455;27;19924;-42
2023/10/20 01:52:22;;;;;;;;;;;7.90;99.90;;;;;;5116393;28;19924;-43
2023/10/20 01:54:47;;;;;;;;;;;7.90;99.90;;;;;;5116387;28;19923;-40
2023/10/20 01:57:13;;;;;;;;;;;7.90;99.90;;;;;;5115415;28;19928;-42
2023/10/20 01:59:38;;;;;;;;;;;7.90;99.90;;;;;;5116210;28;20366;-41
2023/10/20 02:02:04;;;;;;;;;;;7.90;99.90;;;;;;5116314;28;20294;-40
2023/10/20 02:04:30;;;;;;;;;;;7.90;99.90;;;;;;5116161;28;19927;-40
2023/10/20 02:06:56;;;;;;;;;;;7.90;99.90;;;;;;5116059;28;19971;-40
2023/10/20 02:09:25;;;;;;;;;;;7.90;99.90;;;;;;5116113;28;19924;-41
2023/10/20 02:11:57;;;;;;;;;;;7.90;99.90;;;;;;5116166;28;19927;-41
2023/10/20 02:14:23;;;;;;;;;;;7.90;99.90;;;;;;5116032;28;19923;-40
2023/10/20 02:16:48;;;;;;;;;;;7.90;99.90;;;;;;5115973;28;20282;-41
2023/10/20 02:19:15;;;;;;;;;;;7.90;99.90;;;;;;5115449;28;19974;-40
2023/10/20 02:21:41;;;;;;;;;;;7.90;99.90;;;;;;5115969;28;19937;-40
2023/10/20 02:24:07;;;;;;;;;;;7.90;99.90;;;;;;5115819;28;20390;-42
2023/10/20 02:26:33;;;;;;;;;;;7.90;99.90;;;;;;5115812;28;20375;-40
2023/10/20 02:28:58;;;;;;;;;;;7.90;99.90;;;;;;5116022;28;19924;-41
2023/10/20 02:31:24;;;;;;;;;;;7.90;99.90;;;;;;5115755;28;20274;-41
2023/10/20 02:33:50;;;;;;;;;;;7.80;99.90;;;;;;5115506;27;19927;-41
2023/10/20 02:36:16;;;;;;;;;;;7.80;99.90;;;;;;5115613;28;20030;-40
2023/10/20 02:38:42;;;;;;;;;;;7.90;99.90;;;;;;5115659;28;19969;-40
2023/10/20 02:41:08;;;;;;;;;;;7.80;99.90;;;;;;5115440;28;19928;-41
2023/10/20 02:43:34;;;;;;;;;;;7.80;99.90;;;;;;5114528;28;19924;-40
2023/10/20 02:45:59;;;;;;;;;;;7.70;99.90;;;;;;5115338;28;19934;-41
2023/10/20 02:48:25;;;;;;;;;;;7.80;99.90;;;;;;5115241;28;19924;-40
2023/10/20 02:50:51;;;;;;;;;;;7.80;99.90;;;;;;5115247;28;19924;-40
2023/10/20 02:53:17;;;;;;;;;;;7.80;99.90;;;;;;5115214;28;19927;-41
2023/10/20 02:55:43;;;;;;;;;;;7.80;99.90;;;;;;5114955;28;19924;-40
2023/10/20 02:58:12;;;;;;;;;;;7.80;99.90;;;;;;5114980;28;20374;-41
2023/10/20 03:00:42;;;;;;;;;;;7.70;99.90;;;;;;5115143;28;19924;-40
2023/10/20 03:03:08;;;;;;;;;;;7.70;99.90;;;;;;5114768;28;19931;-41
2023/10/20 03:05:34;;;;;;;;;;;7.70;99.90;;;;;;5115082;28;19923;-41
2023/10/20 03:07:59;;;;;;;;;;;7.70;99.90;;;;;;5115034;28;19968;-40
2023/10/20 03:10:25;;;;;;;;;;;7.70;99.90;;;;;;5114926;28;19993;-40
2023/10/20 03:12:51;;;;;;;;;;;7.70;99.90;;;;;;5114832;28;19924;-41
2023/10/20 03:15:16;;;;;;;;;;;7.70;99.90;;;;;;5115000;27;19931;-41
2023/10/20 03:17:42;;;;;;;;;;;7.70;99.90;;;;;;5114627;28;19924;-41
2023/10/20 03:20:14;;;;;;;;;;;7.70;99.90;;;;;;5113550;28;20386;-40
2023/10/20 03:22:42;;;;;;;;;;;7.70;99.90;;;;;;5114549;28;20292;-40
2023/10/20 03:25:09;;;;;;;;;;;7.70;99.90;;;;;;5114800;28;20428;-40
2023/10/20 03:27:37;;;;;;;;;;;7.70;99.90;;;;;;5114768;28;19923;-40
2023/10/20 03:30:04;;;;;;;;;;;7.70;99.90;;;;;;5114631;28;20306;-40
2023/10/20 03:32:29;;;;;;;;;;;7.70;99.90;;;;;;5114467;28;19931;-41
2023/10/20 03:34:55;;;;;;;;;;;7.70;99.90;;;;;;5114687;28;19924;-40
2023/10/20 03:37:21;;;;;;;;;;;7.70;99.90;;;;;;5114663;28;19976;-40
2023/10/20 03:39:47;;;;;;;;;;;7.70;99.90;;;;;;5114695;28;20333;-40
2023/10/20 03:42:13;;;;;;;;;;;7.70;99.90;;;;;;5114657;28;19924;-40
2023/10/20 03:44:39;;;;;;;;;;;7.70;99.90;;;;;;5114607;28;19924;-41
2023/10/20 03:47:05;;;;;;;;;;;7.70;99.90;;;;;;5114270;28;19984;-40
2023/10/20 03:49:35;;;;;;;;;;;7.70;99.90;;;;;;5114528;28;19924;-40
2023/10/20 03:52:01;;;;;;;;;;;7.70;99.90;;;;;;5114461;28;20537;-40
2023/10/20 03:54:29;;;;;;;;;;;7.70;99.90;;;;;;5114338;28;20024;-40
2023/10/20 03:56:56;;;;;;;;;;;7.70;99.90;;;;;;5114300;28;19931;-40
2023/10/20 03:59:21;;;;;;;;;;;7.70;99.90;;;;;;5114297;28;20022;-41
2023/10/20 04:01:47;;;;;;;;;;;7.70;99.90;;;;;;5114383;28;20350;-41
2023/10/20 04:04:13;;;;;;;;;;;7.70;99.90;;;;;;5114378;28;19924;-40
2023/10/20 04:06:44;;;;;;;;;;;7.70;99.90;;;;;;5114276;28;19924;-40
2023/10/20 04:09:10;;;;;;;;;;;7.70;99.90;;;;;;5116866;28;20011;-40
2023/10/20 04:11:36;;;;;;;;;;;7.70;99.90;;;;;;5118171;28;20357;-40
2023/10/20 04:14:08;;;;;;;;;;;7.70;99.90;;;;;;5118315;28;19924;-41
2023/10/20 04:16:41;;;;;;;;;;;7.70;99.90;;;;;;5118368;28;20462;-41
2023/10/20 04:19:09;;;;;;;;;;;7.70;99.90;;;;;;5118097;28;19924;-40
2023/10/20 04:21:35;;;;;;;;;;;7.70;99.90;;;;;;5117524;28;19930;-40
2023/10/20 04:24:01;;;;;;;;;;;7.70;99.90;;;;;;5118108;28;20015;-41
2023/10/20 04:26:30;;;;;;;;;;;7.70;99.90;;;;;;5118045;28;19962;-41
2023/10/20 05:01:09;;;;;;;;;;;7.80;99.90;;;;;;5117689;28;20332;-40
2023/10/20 05:03:48;;;;;;;;;;;7.80;99.90;;;;;;5116449;28;19923;-40
2023/10/20 05:06:22;;;;;;;;;;;7.80;99.90;;;;;;5117262;28;19927;-41
2023/10/20 05:08:48;;;;;;;;;;;7.80;99.90;;;;;;5117431;28;19984;-41
2023/10/20 05:11:15;;;;;;;;;;;7.80;99.90;;;;;;5117042;27;20367;-42
2023/10/20 05:13:41;;;;;;;;;;;7.80;99.90;;;;;;5117092;28;19932;-41
2023/10/20 05:16:09;;;;;;;;;;;7.80;99.90;;;;;;5117178;28;19969;-41
2023/10/20 05:18:38;;;;;;;;;;;7.80;99.90;;;;;;5115995;28;19931;-41
2023/10/20 05:21:05;;;;;;;;;;;7.80;99.90;;;;;;5116491;28;19946;-41
2023/10/20 05:23:30;;;;;;;;;;;7.80;99.90;;;;;;5117028;28;19931;-41
2023/10/20 05:25:56;;;;;;;;;;;7.80;99.90;;;;;;5116931;28;19930;-42
2023/10/20 05:28:22;;;;;;;;;;;7.80;99.90;;;;;;5116873;28;19924;-41
2023/10/20 05:30:48;;;;;;;;;;;7.90;99.90;;;;;;5115463;28;19924;-40
2023/10/20 05:33:15;;;;;;;;;;;7.80;99.90;;;;;;5116542;28;19946;-41
2023/10/20 05:35:40;;;;;;;;;;;7.80;99.90;;;;;;5116818;28;19927;-40
2023/10/20 05:38:06;;;;;;;;;;;7.90;99.90;;;;;;5116691;28;19931;-41
2023/10/20 05:40:33;;;;;;;;;;;7.90;99.90;;;;;;5116744;28;19986;-41
2023/10/20 05:42:58;;;;;;;;;;;7.90;99.90;;;;;;5116374;28;20351;-42
2023/10/20 05:45:24;;;;;;;;;;;7.90;99.90;;;;;;5115599;28;19967;-41
2023/10/20 05:47:50;;;;;;;;;;;7.80;99.90;;;;;;5116434;28;20026;-41
2023/10/20 05:50:16;;;;;;;;;;;7.90;99.90;;;;;;5116522;28;19963;-41
2023/10/20 05:52:41;;;;;;;;;;;7.90;99.90;;;;;;5116296;28;19930;-42
2023/10/20 05:55:07;;;;;;;;;;;7.90;99.90;;;;;;5115549;28;19923;-42
2023/10/20 05:57:33;;;;;;;;;;;7.90;99.90;;;;;;5116319;28;19924;-41
2023/10/20 06:00:03;;;;;;;;;;;7.90;99.90;;;;;;5116172;28;19931;-41
2023/10/20 06:02:29;;;;;;;;;;;7.90;99.90;;;;;;5116080;28;19924;-41
2023/10/20 06:04:54;;;;;;;;;;;7.90;99.90;;;;;;5116402;28;19931;-41
2023/10/20 06:07:20;;;;;;;;;;;7.90;99.90;;;;;;5116442;28;19928;-41
2023/10/20 06:09:49;;;;;;;;;;;7.90;99.90;;;;;;5116132;27;19957;-41
2023/10/20 06:12:14;;;;;;;;;;;7.80;99.90;;;;;;5115904;28;20027;-41
2023/10/20 06:14:40;;;;;;;;;;;7.80;99.90;;;;;;5115817;28;19990;-40
2023/10/20 06:17:05;;;;;;;;;;;7.80;99.90;;;;;;5115854;28;19923;-41
2023/10/20 06:19:31;;;;;;;;;;;7.80;99.90;;;;;;5115611;28;20324;-42
2023/10/20 06:21:57;;;;;;;;;;;7.80;99.90;;;;;;5115830;28;19923;-41
2023/10/20 06:24:22;;;;;;;;;;;7.80;99.90;;;;;;5115832;28;19974;-41
2023/10/20 06:26:48;;;;;;;;;;;7.80;99.90;;;;;;5132007;27;19974;-41
2023/10/20 06:31:48;;;;;;;;;;;7.70;99.90;;;;;;5114777;28;19946;-41
2023/10/20 06:34:23;;;;;;;;;;;7.70;99.90;;;;;;5115657;28;19931;-41
2023/10/20 06:36:51;;;;;;;;;;;7.70;99.90;;;;;;5115810;28;19924;-41
2023/10/20 06:39:18;;;;;;;;;;;7.70;99.90;;;;;;5115574;28;19935;-42
2023/10/20 06:41:44;;;;;;;;;;;7.70;99.90;;;;;;5115403;27;19931;-41
2023/10/20 06:44:10;;;;;;;;;;;7.70;99.90;;;;;;5115255;28;19928;-41
2023/10/20 06:46:35;;;;;;;;;;;7.70;99.90;;;;;;5115031;28;19924;-41
2023/10/20 06:49:02;;;;;;;;;;;7.70;99.90;;;;;;5115306;28;19982;-41
2023/10/20 06:51:29;;;;;;;;;;;7.60;99.90;;;;;;5115495;28;19928;-40
2023/10/20 06:53:55;;;;;;;;;;;7.70;99.90;;;;;;5115307;28;19981;-41
2023/10/20 06:56:21;;;;;;;;;;;7.60;99.90;;;;;;5115139;28;20057;-41
2023/10/20 06:58:47;;;;;;;;;;;7.60;99.90;;;;;;5114185;28;20385;-41
2023/10/20 07:01:13;;;;;;;;;;;7.60;99.90;;;;;;5114186;28;20363;-41
2023/10/20 07:03:39;;;;;;;;;;;7.60;99.90;;;;;;5115037;28;19930;-41
2023/10/20 07:06:09;;;;;;;;;;;7.60;99.90;;;;;;5114957;28;19928;-41
2023/10/20 07:08:34;;;;;;;;;;;7.60;99.90;;;;;;5115020;28;19997;-40
2023/10/20 07:11:04;;;;;;;;;;;7.70;99.90;;;;;;5114934;28;20026;-41
2023/10/20 07:13:32;;;;;;;;;;;7.60;99.90;;;;;;5114827;28;20271;-41
2023/10/20 07:15:58;;;;;;;;;;;7.60;99.90;;;;;;5115561;28;19931;-41
2023/10/20 07:18:23;;;;;;;;;;;7.60;99.90;;;;;;5114813;28;20374;-41
2023/10/20 07:20:49;;;;;;;;;;;7.60;99.90;;;;;;5114681;28;19946;-41
2023/10/20 07:23:16;;;;;;;;;;;7.60;99.90;;;;;;5114648;28;19947;-41
2023/10/20 07:25:42;;;;;;;;;;;7.60;99.90;;;;;;5114598;28;20506;-44
2023/10/20 07:28:08;;;;;;;;;;;7.60;99.90;;;;;;5114602;28;19969;-40
2023/10/20 07:30:34;;;;;;;;;;;7.60;99.90;;;;;;5114771;28;19923;-41
2023/10/20 07:33:00;;;;;;;;;;;7.60;99.90;;;;;;5114597;28;19931;-41
2023/10/20 07:35:25;;;;;;;;;;;7.60;99.90;;;;;;5114711;28;19967;-40
2023/10/20 07:37:51;;;;;;;;;;;7.50;99.90;;;;;;5114599;28;19985;-41
2023/10/20 07:40:18;;;;;;;;;;;7.50;99.90;;;;;;5114348;28;19946;-41
2023/10/20 07:42:45;;;;;;;;;;;7.50;99.90;;;;;;5114255;28;19924;-41
2023/10/20 07:45:11;;;;;;;;;;;7.50;99.90;;;;;;5114833;28;19931;-41
2023/10/20 07:47:37;;;;;;;;;;;7.40;99.90;;;;;;5114473;28;19924;-41
2023/10/20 07:50:04;;;;;;;;;;;7.40;99.90;;;;;;5114635;28;20274;-41
2023/10/20 07:52:29;;;;;;;;;;;7.40;99.90;;;;;;5114271;28;19954;-41
2023/10/20 07:54:55;;;;;;;;;;;7.40;99.90;;;;;;5114391;28;19924;-41
2023/10/20 07:57:22;;;;;;;;;;;7.40;99.90;;;;;;5114464;28;19988;-40
2023/10/20 07:59:48;;;;;;;;;;;7.30;99.90;;;;;;5114456;28;19985;-40
2023/10/20 08:02:14;;;;;;;;;;;7.30;99.90;;;;;;5114356;28;20378;-41
2023/10/20 08:04:41;;;;;;;;;;;7.30;99.90;;;;;;5114485;28;19978;-41
2023/10/20 08:07:09;;;;;;;;;;;7.30;99.90;;;;;;5114397;28;19927;-41
2023/10/20 08:09:36;;;;;;;;;;;7.30;99.90;;;;;;5114202;28;20405;-41
2023/10/20 08:12:02;;;;;;;;;;;7.30;99.90;;;;;;5114239;28;19985;-41
2023/10/20 08:14:28;;;;;;;;;;;7.30;99.90;;;;;;5114337;28;19924;-41
2023/10/20 08:16:54;;;;;;;;;;;7.30;99.90;;;;;;5114241;28;19924;-41
2023/10/20 08:19:20;;;;;;;;;;;7.30;99.90;;;;;;5114542;28;19935;-42
2023/10/20 08:21:46;;;;;;;;;;;7.30;99.90;;;;;;5114079;28;19924;-42
2023/10/20 08:24:12;;;;;;;;;;;7.30;99.90;;;;;;5113922;28;19953;-41
2023/10/20 08:26:37;;;;;;;;;;;7.30;99.90;;;;;;5113881;28;19923;-41
2023/10/20 08:29:06;;;;;;;;;;;7.30;99.90;;;;;;5114042;28;20061;-41
2023/10/20 08:31:32;;;;;;;;;;;7.30;99.90;;;;;;5113003;28;19924;-41
2023/10/20 08:33:58;;;;;;;;;;;7.30;99.90;;;;;;5114102;28;19924;-41
2023/10/20 08:36:24;;;;;;;;;;;7.30;99.90;;;;;;5113992;28;19931;-41
2023/10/20 08:38:50;;;;;;;;;;;7.30;99.90;;;;;;5113957;28;19931;-41
2023/10/20 08:41:17;;;;;;;;;;;7.30;99.90;;;;;;5114024;28;19980;-41
2023/10/20 08:43:43;;;;;;;;;;;7.20;99.90;;;;;;5114339;28;20055;-41
2023/10/20 08:46:13;;;;;;;;;;;7.20;99.90;;;;;;5113072;28;20354;-41
2023/10/20 08:48:39;;;;;;;;;;;7.20;99.90;;;;;;5113931;28;19969;-41
2023/10/20 08:51:05;;;;;;;;;;;7.30;99.90;;;;;;5113699;28;19924;-41
2023/10/20 08:53:32;;;;;;;;;;;7.20;99.90;;;;;;5112816;28;19963;-41
2023/10/20 08:55:58;;;;;;;;;;;7.20;99.90;;;;;;5117211;28;19976;-41
2023/10/20 08:58:27;;;;;;;;;;;7.20;99.90;;;;;;5116348;28;19923;-41
2023/10/20 09:00:54;;;;;;;;;;;7.20;99.90;;;;;;5117497;28;19977;-41
2023/10/20 09:03:19;;;;;;;;;;;7.20;99.90;;;;;;5117362;28;19924;-41
2023/10/20 09:05:45;;;;;;;;;;;7.10;99.90;;;;;;5117355;28;19931;-41
2023/10/20 09:08:12;;;;;;;;;;;7.10;99.90;;;;;;5117236;28;19930;-41
2023/10/20 09:10:46;;;;;;;;;;;7.20;99.90;;;;;;5116397;28;19931;-41
2023/10/20 09:13:12;;;;;;;;;;;7.10;99.90;;;;;;5117313;28;19924;-40
2023/10/20 09:15:37;;;;;;;;;;;7.10;99.90;;;;;;5117305;27;19935;-40
2023/10/20 09:18:07;;;;;;;;;;;7.10;99.90;;;;;;5117204;28;19924;-41
2023/10/20 09:20:33;;;;;;;;;;;7.00;99.90;;;;;;5116779;28;19924;-41
2023/10/20 09:22:58;;;;;;;;;;;7.00;99.90;;;;;;5115584;28;19930;-40
2023/10/20 09:25:25;;;;;;;;;;;7.00;99.90;;;;;;5116996;28;20287;-40
2023/10/20 09:27:51;;;;;;;;;;;6.90;99.90;;;;;;5116939;28;20018;-40
2023/10/20 09:30:18;;;;;;;;;;;6.90;99.90;;;;;;5117064;27;19978;-40
2023/10/20 09:32:43;;;;;;;;;;;6.90;99.90;;;;;;5116653;28;19930;-40
2023/10/20 09:35:10;;;;;;;;;;;6.90;99.90;;;;;;5116561;28;19928;-41
2023/10/20 09:37:36;;;;;;;;;;;6.90;99.90;;;;;;5116802;27;19975;-41
2023/10/20 09:40:05;;;;;;;;;;;6.90;99.90;;;;;;5116772;28;19974;-40
2023/10/20 09:42:36;;;;;;;;;;;6.90;99.90;;;;;;5115748;28;20371;-40
2023/10/20 09:45:06;;;;;;;;;;;6.90;99.90;;;;;;5115952;28;19968;-41
2023/10/20 09:47:33;;;;;;;;;;;7.00;99.90;;;;;;5116436;28;20018;-40
2023/10/20 09:50:00;;;;;;;;;;;6.90;99.90;;;;;;5116264;28;20025;-41
2023/10/20 09:52:25;;;;;;;;;;;6.90;99.90;;;;;;5116434;27;19931;-40
2023/10/20 09:54:52;;;;;;;;;;;6.80;99.90;;;;;;5116426;28;19923;-41
2023/10/20 09:57:21;;;;;;;;;;;6.90;99.90;;;;;;5116508;28;20060;-41
2023/10/20 09:59:53;;;;;;;;;;;6.90;99.90;;;;;;5116103;28;20405;-41
2023/10/20 10:02:28;;;;;;;;;;;6.80;99.90;;;;;;5116093;28;19928;-41
2023/10/20 10:04:54;;;;;;;;;;;6.90;99.90;;;;;;5116263;28;19946;-41
2023/10/20 10:07:35;;;;;;;;;;;6.80;99.90;;;;;;5115194;28;19927;-41
2023/10/20 10:10:02;;;;;;;;;;;6.80;99.90;;;;;;5115252;28;19928;-40
2023/10/20 10:12:28;;;;;;;;;;;6.80;99.90;;;;;;5115855;28;20375;-41
2023/10/20 10:15:14;;;;;;;;;;;6.80;99.90;;;;;;5115899;28;19923;-41
2023/10/20 10:17:47;;;;;;;;;;;6.80;99.90;;;;;;5116094;28;19928;-40
2023/10/20 10:20:19;;;;;;;;;;;6.90;99.90;;;;;;5116071;28;20039;-41
2023/10/20 10:22:45;;;;;;;;;;;6.80;99.90;;;;;;5115781;28;20007;-41
2023/10/20 10:25:10;;;;;;;;;;;6.80;99.90;;;;;;5115697;28;20023;-41
2023/10/20 10:27:36;;;;;;;;;;;6.90;99.90;;;;;;5115603;28;19928;-41
2023/10/20 10:30:09;;;;;;;;;;;6.80;99.90;;;;;;5115670;28;19924;-41
2023/10/20 10:32:44;;;;;;;;;;;6.80;99.90;;;;;;5115721;28;20091;-41
2023/10/20 10:35:15;;;;;;;;;;;6.80;99.90;;;;;;5115799;28;19927;-40
2023/10/20 10:37:40;;;;;;;;;;;6.80;99.90;;;;;;5115573;28;20256;-41
2023/10/20 10:40:07;;;;;;;;;;;6.80;99.90;;;;;;5115579;28;19930;-41
2023/10/20 10:42:52;;;;;;;;;;;6.80;99.90;;;;;;5115540;28;20019;-40
2023/10/20 10:45:22;;;;;;;;;;;6.80;99.90;;;;;;5115367;28;20375;-41
2023/10/20 10:48:10;;;;;;;;;;;6.80;99.90;;;;;;5115200;28;19931;-41
2023/10/20 10:50:36;;;;;;;;;;;6.80;99.90;;;;;;5115424;28;20018;-41
2023/10/20 10:53:02;;;;;;;;;;;6.80;99.90;;;;;;5115675;28;19924;-41
2023/10/20 10:55:29;;;;;;;;;;;6.70;99.90;;;;;;5115312;28;20347;-41
2023/10/20 10:57:55;;;;;;;;;;;6.80;99.90;;;;;;5115092;28;20401;-40
2023/10/20 11:00:21;;;;;;;;;;;6.80;99.90;;;;;;5115091;28;19928;-41
2023/10/20 11:02:47;;;;;;;;;;;6.80;99.90;;;;;;5113896;28;19973;-40
2023/10/20 11:05:14;;;;;;;;;;;6.70;99.90;;;;;;5114754;28;19924;-41
2023/10/20 11:07:40;;;;;;;;;;;6.80;99.90;;;;;;5115058;28;19932;-41
2023/10/20 11:10:06;;;;;;;;;;;6.80;99.90;;;;;;5115090;28;19924;-41
2023/10/20 11:12:32;;;;;;;;;;;6.70;99.90;;;;;;5114920;28;19930;-40
2023/10/20 11:14:59;;;;;;;;;;;6.70;99.90;;;;;;5114900;28;19985;-40
2023/10/20 11:17:24;;;;;;;;;;;6.70;99.90;;;;;;5114468;28;19947;-41
2023/10/20 11:19:50;;;;;;;;;;;6.70;99.90;;;;;;5114466;28;20370;-41
2023/10/20 11:22:16;;;;;;;;;;;6.70;99.90;;;;;;5115148;28;20018;-40
2023/10/20 11:24:42;;;;;;;;;;;6.70;99.90;;;;;;5113855;28;19924;-41
2023/10/20 11:27:08;;;;;;;;;;;6.70;99.90;;;;;;5113989;28;19924;-41
2023/10/20 11:29:35;;;;;;;;;;;6.70;99.90;;;;;;5114789;28;19931;-41
2023/10/20 11:32:05;;;;;;;;;;;6.70;99.90;;;;;;5114298;28;19924;-41
2023/10/20 11:34:34;;;;;;;;;;;6.70;99.90;;;;;;5114692;28;20294;-41
2023/10/20 11:37:00;;;;;;;;;;;6.70;99.90;;;;;;5114408;28;20402;-40
2023/10/20 11:39:27;;;;;;;;;;;6.70;99.90;;;;;;5114465;28;19928;-41
2023/10/20 11:41:53;;;;;;;;;;;6.60;99.90;;;;;;5114491;28;19931;-40
2023/10/20 11:44:20;;;;;;;;;;;6.60;99.90;;;;;;5114445;28;19923;-41
2023/10/20 11:46:46;;;;;;;;;;;6.60;99.90;;;;;;5114382;28;20393;-41
2023/10/20 11:49:12;;;;;;;;;;;6.60;99.90;;;;;;5114497;28;20022;-41
2023/10/20 11:51:40;;;;;;;;;;;6.60;99.90;;;;;;5114146;28;19928;-41
2023/10/20 11:54:06;;;;;;;;;;;6.60;99.90;;;;;;5114479;28;19930;-40
2023/10/20 11:56:32;;;;;;;;;;;6.70;99.90;;;;;;5114303;28;19924;-40
2023/10/20 11:58:58;;;;;;;;;;;6.60;99.90;;;;;;5114323;28;20031;-41
2023/10/20 12:01:24;;;;;;;;;;;6.60;99.90;;;;;;5114352;28;20429;-41
2023/10/20 12:03:49;;;;;;;;;;;6.70;99.90;;;;;;5114434;28;19923;-40
2023/10/20 12:06:15;;;;;;;;;;;6.70;99.90;;;;;;5114403;28;19923;-40
2023/10/20 12:08:41;;;;;;;;;;;6.60;99.90;;;;;;5114226;28;19928;-40
2023/10/20 12:11:08;;;;;;;;;;;6.70;99.90;;;;;;5114095;28;20452;-40
2023/10/20 12:13:36;;;;;;;;;;;6.70;99.90;;;;;;5114367;28;20371;-40
2023/10/20 12:16:04;;;;;;;;;;;6.70;99.90;;;;;;5114054;28;19953;-40
2023/10/20 12:18:30;;;;;;;;;;;6.60;99.90;;;;;;5114576;28;19927;-41
2023/10/20 12:20:55;;;;;;;;;;;6.70;99.90;;;;;;5114176;28;20381;-40
2023/10/20 12:23:21;;;;;;;;;;;6.70;99.90;;;;;;5114131;28;19924;-41
2023/10/20 12:25:46;;;;;;;;;;;6.70;99.90;;;;;;5114144;28;19924;-40
2023/10/20 12:28:12;;;;;;;;;;;6.70;99.90;;;;;;5113953;28;19924;-40
2023/10/20 12:30:37;;;;;;;;;;;6.70;99.90;;;;;;5116751;28;19958;-40
2023/10/20 12:33:05;;;;;;;;;;;6.70;99.90;;;;;;5118020;28;20305;-42
2023/10/20 12:35:31;;;;;;;;;;;6.70;99.90;;;;;;5118016;28;19928;-40
2023/10/20 12:37:56;;;;;;;;;;;6.70;99.90;;;;;;5117948;28;20324;-41
2023/10/20 12:40:22;;;;;;;;;;;6.70;99.90;;;;;;5118011;28;19981;-40
2023/10/20 12:42:49;;;;;;;;;;;6.70;99.90;;;;;;5117844;28;19974;-41
2023/10/20 12:45:16;;;;;;;;;;;6.70;99.90;;;;;;5117858;28;19931;-41
2023/10/20 12:47:41;;;;;;;;;;;6.70;99.90;;;;;;5117836;28;19967;-40
2023/10/20 12:50:08;;;;;;;;;;;6.70;99.90;;;;;;5117601;28;19993;-41
2023/10/20 12:52:34;;;;;;;;;;;6.70;99.90;;;;;;5117688;28;19928;-41
2023/10/20 12:55:00;;;;;;;;;;;6.70;99.90;;;;;;5116783;28;19931;-41
2023/10/20 12:57:25;;;;;;;;;;;6.70;99.90;;;;;;5117429;28;19923;-40
2023/10/20 12:59:52;;;;;;;;;;;6.70;99.90;;;;;;5117193;28;19928;-41
2023/10/20 13:02:17;;;;;;;;;;;6.70;99.90;;;;;;5117542;28;19967;-41
2023/10/20 13:04:43;;;;;;;;;;;6.70;99.90;;;;;;5117513;28;20024;-41
2023/10/20 13:07:09;;;;;;;;;;;6.70;99.90;;;;;;5117396;28;20048;-40
2023/10/20 13:09:34;;;;;;;;;;;6.70;99.90;;;;;;5117447;28;19924;-40
2023/10/20 13:12:00;;;;;;;;;;;6.70;99.90;;;;;;5117009;28;20466;-40
2023/10/20 13:14:28;;;;;;;;;;;6.70;99.90;;;;;;5117219;28;19977;-41
2023/10/20 13:16:54;;;;;;;;;;;6.70;99.90;;;;;;5117268;28;20351;-40
2023/10/20 13:19:20;;;;;;;;;;;6.60;99.90;;;;;;5116082;28;19988;-41
2023/10/20 13:21:45;;;;;;;;;;;6.60;99.90;;;;;;5117093;28;19974;-41
2023/10/20 13:24:11;;;;;;;;;;;6.60;99.90;;;;;;5117141;28;19954;-41
2023/10/20 13:26:37;;;;;;;;;;;6.60;99.90;;;;;;5116766;28;19923;-41
2023/10/20 13:29:03;;;;;;;;;;;6.70;99.90;;;;;;5116649;28;20371;-41
2023/10/20 13:31:28;;;;;;;;;;;6.60;99.90;;;;;;5116672;28;19930;-41
2023/10/20 13:33:55;;;;;;;;;;;6.70;99.90;;;;;;5116881;28;19924;-41
2023/10/20 13:36:20;;;;;;;;;;;6.60;99.90;;;;;;5116807;28;20040;-41
2023/10/20 13:38:47;;;;;;;;;;;6.70;99.90;;;;;;5116868;28;20018;-41
2023/10/20 13:41:13;;;;;;;;;;;6.60;99.90;;;;;;5116475;28;20361;-41
2023/10/20 13:43:38;;;;;;;;;;;6.60;99.90;;;;;;5115594;28;19981;-41
2023/10/20 13:46:04;;;;;;;;;;;6.60;99.90;;;;;;5116616;28;19975;-40
2023/10/20 13:48:30;;;;;;;;;;;6.60;99.90;;;;;;5116605;28;19930;-41
2023/10/20 13:50:55;;;;;;;;;;;6.60;99.90;;;;;;5116501;28;19923;-41
2023/10/20 13:53:21;;;;;;;;;;;6.60;99.90;;;;;;5116564;28;19923;-41
2023/10/20 13:55:47;;;;;;;;;;;6.60;99.90;;;;;;5116467;28;20374;-40
2023/10/20 13:58:14;;;;;;;;;;;6.70;99.90;;;;;;5116254;28;19924;-41
2023/10/20 14:00:40;;;;;;;;;;;6.60;99.90;;;;;;5116334;28;20385;-41
2023/10/20 14:03:06;;;;;;;;;;;6.60;99.90;;;;;;5116345;28;19924;-41
2023/10/20 14:05:31;;;;;;;;;;;6.70;99.90;;;;;;5116315;28;20290;-41
2023/10/20 14:07:57;;;;;;;;;;;6.70;99.90;;;;;;5116183;28;19936;-41
2023/10/20 14:10:23;;;;;;;;;;;6.70;99.90;;;;;;5116080;28;19927;-40
2023/10/20 14:12:49;;;;;;;;;;;6.70;99.90;;;;;;5115948;28;19969;-40
2023/10/20 14:15:14;;;;;;;;;;;6.70;99.90;;;;;;5116050;28;20367;-40
2023/10/20 14:17:40;;;;;;;;;;;6.70;99.90;;;;;;5116093;28;19928;-40
2023/10/20 14:20:06;;;;;;;;;;;6.70;99.90;;;;;;5115861;28;19931;-40
2023/10/20 14:22:32;;;;;;;;;;;6.70;99.90;;;;;;5115918;27;19928;-41
2023/10/20 14:24:57;;;;;;;;;;;6.70;99.90;;;;;;5115757;28;20018;-40
2023/10/20 14:27:23;;;;;;;;;;;6.60;99.90;;;;;;5115753;28;20002;-41
2023/10/20 14:29:48;;;;;;;;;;;6.70;99.90;;;;;;5115735;28;20397;-40
2023/10/20 14:32:14;;;;;;;;;;;6.60;99.90;;;;;;5115793;28;19923;-40
2023/10/20 14:34:40;;;;;;;;;;;6.60;99.90;;;;;;5114519;28;20294;-40
2023/10/20 14:37:07;;;;;;;;;;;6.60;99.90;;;;;;5115493;28;20018;-39
2023/10/20 14:39:38;;;;;;;;;;;6.70;99.90;;;;;;5115485;28;20006;-40
2023/10/20 14:42:04;;;;;;;;;;;6.60;99.90;;;;;;5115481;28;20374;-40
2023/10/20 14:44:30;;;;;;;;;;;6.60;99.90;;;;;;5115915;28;19924;-40
2023/10/20 14:46:56;;;;;;;;;;;6.60;99.90;;;;;;5115792;28;20348;-40
2023/10/20 14:49:21;;;;;;;;;;;6.70;99.90;;;;;;5115776;28;19924;-40
2023/10/20 14:51:47;;;;;;;;;;;6.60;99.90;;;;;;5114703;28;19940;-40
2023/10/20 14:54:13;;;;;;;;;;;6.70;99.90;;;;;;5115388;28;20358;-40
2023/10/20 14:56:38;;;;;;;;;;;6.60;99.90;;;;;;5115081;28;19924;-40
2023/10/20 14:59:04;;;;;;;;;;;6.60;99.90;;;;;;5115353;28;19923;-40
2023/10/20 15:01:29;;;;;;;;;;;6.60;99.90;;;;;;5115135;28;19924;-39